sensor_id;sensor_type;location;lat;lon;timestamp;P1;durP1;ratioP1;P2;durP2;ratioP2
19998;SDS011;10160;50.926;4.374;2023-04-15T00:02:15;6.80;;;3.57;;
19998;SDS011;10160;50.926;4.374;2023-04-15T00:04:42;8.93;;;4.13;;
19998;SDS011;10160;50.926;4.374;2023-04-15T00:07:09;7.43;;;3.87;;
19998;SDS011;10160;50.926;4.374;2023-04-15T00:09:35;11.30;;;4.50;;
19998;SDS011;10160;50.926;4.374;2023-04-15T00:12:01;11.20;;;4.03;;
19998;SDS011;10160;50.926;4.374;2023-04-15T00:14:26;8.87;;;4.63;;
19998;SDS011;10160;50.926;4.374;2023-04-15T00:16:52;9.13;;;4.03;;
19998;SDS011;10160;50.926;4.374;2023-04-15T00:19:20;9.13;;;4.20;;
19998;SDS011;10160;50.926;4.374;2023-04-15T00:21:46;11.77;;;4.37;;
19998;SDS011;10160;50.926;4.374;2023-04-15T00:24:14;8.07;;;4.17;;
19998;SDS011;10160;50.926;4.374;2023-04-15T00:26:39;9.03;;;4.30;;
19998;SDS011;10160;50.926;4.374;2023-04-15T00:29:05;9.33;;;4.60;;
19998;SDS011;10160;50.926;4.374;2023-04-15T00:31:30;7.43;;;4.60;;
19998;SDS011;10160;50.926;4.374;2023-04-15T00:33:56;8.00;;;4.03;;
19998;SDS011;10160;50.926;4.374;2023-04-15T00:36:22;9.50;;;4.60;;
19998;SDS011;10160;50.926;4.374;2023-04-15T00:38:48;8.57;;;4.50;;
19998;SDS011;10160;50.926;4.374;2023-04-15T00:41:14;8.03;;;4.50;;
19998;SDS011;10160;50.926;4.374;2023-04-15T00:43:39;7.40;;;4.47;;
19998;SDS011;10160;50.926;4.374;2023-04-15T00:46:06;8.77;;;5.10;;
19998;SDS011;10160;50.926;4.374;2023-04-15T00:48:33;7.07;;;4.40;;
19998;SDS011;10160;50.926;4.374;2023-04-15T00:50:59;7.57;;;3.90;;
19998;SDS011;10160;50.926;4.374;2023-04-15T00:53:25;6.53;;;3.93;;
19998;SDS011;10160;50.926;4.374;2023-04-15T00:55:51;5.93;;;3.60;;
19998;SDS011;10160;50.926;4.374;2023-04-15T00:58:18;7.33;;;4.03;;
19998;SDS011;10160;50.926;4.374;2023-04-15T01:00:43;9.60;;;4.87;;
19998;SDS011;10160;50.926;4.374;2023-04-15T01:03:10;6.80;;;4.20;;
19998;SDS011;10160;50.926;4.374;2023-04-15T01:05:36;7.90;;;4.03;;
19998;SDS011;10160;50.926;4.374;2023-04-15T01:08:03;7.57;;;3.90;;
19998;SDS011;10160;50.926;4.374;2023-04-15T01:10:29;9.77;;;4.13;;
19998;SDS011;10160;50.926;4.374;2023-04-15T01:12:55;9.60;;;3.80;;
19998;SDS011;10160;50.926;4.374;2023-04-15T01:15:22;7.27;;;3.50;;
19998;SDS011;10160;50.926;4.374;2023-04-15T01:17:48;6.90;;;3.97;;
19998;SDS011;10160;50.926;4.374;2023-04-15T01:20:14;7.77;;;4.20;;
19998;SDS011;10160;50.926;4.374;2023-04-15T01:22:40;6.63;;;3.83;;
19998;SDS011;10160;50.926;4.374;2023-04-15T01:25:10;9.07;;;4.10;;
19998;SDS011;10160;50.926;4.374;2023-04-15T01:27:40;7.00;;;3.70;;
19998;SDS011;10160;50.926;4.374;2023-04-15T01:30:07;7.63;;;3.67;;
19998;SDS011;10160;50.926;4.374;2023-04-15T01:32:34;8.17;;;3.73;;
19998;SDS011;10160;50.926;4.374;2023-04-15T01:35:00;9.17;;;3.80;;
19998;SDS011;10160;50.926;4.374;2023-04-15T01:37:26;11.40;;;3.40;;
19998;SDS011;10160;50.926;4.374;2023-04-15T01:39:52;8.93;;;3.53;;
19998;SDS011;10160;50.926;4.374;2023-04-15T01:42:19;9.50;;;3.80;;
19998;SDS011;10160;50.926;4.374;2023-04-15T01:44:45;8.47;;;3.93;;
19998;SDS011;10160;50.926;4.374;2023-04-15T01:47:11;6.77;;;3.67;;
19998;SDS011;10160;50.926;4.374;2023-04-15T01:49:37;10.67;;;5.50;;
19998;SDS011;10160;50.926;4.374;2023-04-15T01:52:03;8.87;;;4.33;;
19998;SDS011;10160;50.926;4.374;2023-04-15T01:54:28;10.07;;;4.47;;
19998;SDS011;10160;50.926;4.374;2023-04-15T01:56:54;8.70;;;4.70;;
19998;SDS011;10160;50.926;4.374;2023-04-15T01:59:20;8.80;;;4.53;;
19998;SDS011;10160;50.926;4.374;2023-04-15T02:01:47;15.03;;;5.43;;
19998;SDS011;10160;50.926;4.374;2023-04-15T02:04:13;11.10;;;5.50;;
19998;SDS011;10160;50.926;4.374;2023-04-15T02:06:41;13.27;;;6.57;;
19998;SDS011;10160;50.926;4.374;2023-04-15T02:09:08;13.50;;;6.53;;
19998;SDS011;10160;50.926;4.374;2023-04-15T02:11:34;15.17;;;8.23;;
19998;SDS011;10160;50.926;4.374;2023-04-15T02:14:01;16.87;;;8.37;;
19998;SDS011;10160;50.926;4.374;2023-04-15T02:16:30;18.17;;;8.27;;
19998;SDS011;10160;50.926;4.374;2023-04-15T02:18:56;17.30;;;8.53;;
19998;SDS011;10160;50.926;4.374;2023-04-15T02:21:25;20.00;;;8.97;;
19998;SDS011;10160;50.926;4.374;2023-04-15T02:23:51;25.33;;;10.07;;
19998;SDS011;10160;50.926;4.374;2023-04-15T02:26:17;20.33;;;9.67;;
19998;SDS011;10160;50.926;4.374;2023-04-15T02:28:43;22.80;;;9.73;;
19998;SDS011;10160;50.926;4.374;2023-04-15T02:31:09;21.47;;;10.37;;
19998;SDS011;10160;50.926;4.374;2023-04-15T02:33:35;20.97;;;9.53;;
19998;SDS011;10160;50.926;4.374;2023-04-15T02:36:01;24.27;;;11.07;;
19998;SDS011;10160;50.926;4.374;2023-04-15T02:38:28;25.43;;;11.47;;
19998;SDS011;10160;50.926;4.374;2023-04-15T02:40:54;27.20;;;10.93;;
19998;SDS011;10160;50.926;4.374;2023-04-15T02:43:21;23.80;;;11.33;;
19998;SDS011;10160;50.926;4.374;2023-04-15T02:45:47;23.90;;;11.07;;
19998;SDS011;10160;50.926;4.374;2023-04-15T02:48:12;22.03;;;10.57;;
19998;SDS011;10160;50.926;4.374;2023-04-15T02:50:38;28.23;;;12.37;;
19998;SDS011;10160;50.926;4.374;2023-04-15T02:53:05;24.27;;;11.70;;
19998;SDS011;10160;50.926;4.374;2023-04-15T02:55:31;26.73;;;11.97;;
19998;SDS011;10160;50.926;4.374;2023-04-15T02:57:56;22.63;;;11.03;;
19998;SDS011;10160;50.926;4.374;2023-04-15T03:00:25;24.70;;;10.87;;
19998;SDS011;10160;50.926;4.374;2023-04-15T03:02:56;24.13;;;11.37;;
19998;SDS011;10160;50.926;4.374;2023-04-15T03:05:23;25.17;;;11.73;;
19998;SDS011;10160;50.926;4.374;2023-04-15T03:07:49;23.27;;;11.23;;
19998;SDS011;10160;50.926;4.374;2023-04-15T03:10:18;22.13;;;11.23;;
19998;SDS011;10160;50.926;4.374;2023-04-15T03:12:44;24.33;;;10.83;;
19998;SDS011;10160;50.926;4.374;2023-04-15T03:15:10;19.67;;;10.33;;
19998;SDS011;10160;50.926;4.374;2023-04-15T03:17:36;28.03;;;11.07;;
19998;SDS011;10160;50.926;4.374;2023-04-15T03:20:02;24.20;;;10.73;;
19998;SDS011;10160;50.926;4.374;2023-04-15T03:22:29;22.40;;;10.30;;
19998;SDS011;10160;50.926;4.374;2023-04-15T03:24:58;22.43;;;10.67;;
19998;SDS011;10160;50.926;4.374;2023-04-15T03:27:24;22.33;;;10.40;;
19998;SDS011;10160;50.926;4.374;2023-04-15T03:29:49;24.90;;;11.40;;
19998;SDS011;10160;50.926;4.374;2023-04-15T03:32:15;20.50;;;11.03;;
19998;SDS011;10160;50.926;4.374;2023-04-15T03:34:42;20.77;;;10.13;;
19998;SDS011;10160;50.926;4.374;2023-04-15T03:37:08;17.43;;;9.73;;
19998;SDS011;10160;50.926;4.374;2023-04-15T03:39:33;16.57;;;8.97;;
19998;SDS011;10160;50.926;4.374;2023-04-15T03:41:59;18.00;;;9.33;;
19998;SDS011;10160;50.926;4.374;2023-04-15T03:44:26;14.47;;;8.50;;
19998;SDS011;10160;50.926;4.374;2023-04-15T03:46:51;18.73;;;8.57;;
19998;SDS011;10160;50.926;4.374;2023-04-15T03:49:17;15.80;;;9.57;;
19998;SDS011;10160;50.926;4.374;2023-04-15T03:51:44;18.70;;;9.17;;
19998;SDS011;10160;50.926;4.374;2023-04-15T03:54:10;18.03;;;9.53;;
19998;SDS011;10160;50.926;4.374;2023-04-15T03:56:36;19.00;;;10.10;;
19998;SDS011;10160;50.926;4.374;2023-04-15T03:59:02;16.20;;;9.10;;
19998;SDS011;10160;50.926;4.374;2023-04-15T04:01:28;14.03;;;8.90;;
19998;SDS011;10160;50.926;4.374;2023-04-15T04:03:54;16.80;;;9.33;;
19998;SDS011;10160;50.926;4.374;2023-04-15T04:06:19;18.23;;;9.33;;
19998;SDS011;10160;50.926;4.374;2023-04-15T04:08:45;16.43;;;9.30;;
19998;SDS011;10160;50.926;4.374;2023-04-15T04:11:11;15.93;;;9.33;;
19998;SDS011;10160;50.926;4.374;2023-04-15T04:13:37;20.50;;;10.03;;
19998;SDS011;10160;50.926;4.374;2023-04-15T04:16:02;17.37;;;9.37;;
19998;SDS011;10160;50.926;4.374;2023-04-15T04:18:29;20.37;;;10.13;;
19998;SDS011;10160;50.926;4.374;2023-04-15T04:20:57;14.43;;;9.23;;
19998;SDS011;10160;50.926;4.374;2023-04-15T04:23:23;18.90;;;9.20;;
19998;SDS011;10160;50.926;4.374;2023-04-15T04:25:49;21.83;;;10.17;;
19998;SDS011;10160;50.926;4.374;2023-04-15T04:28:15;16.53;;;9.43;;
19998;SDS011;10160;50.926;4.374;2023-04-15T04:30:40;17.83;;;9.77;;
19998;SDS011;10160;50.926;4.374;2023-04-15T04:33:06;15.67;;;9.37;;
19998;SDS011;10160;50.926;4.374;2023-04-15T04:35:32;16.53;;;8.40;;
19998;SDS011;10160;50.926;4.374;2023-04-15T04:37:59;17.00;;;9.63;;
19998;SDS011;10160;50.926;4.374;2023-04-15T04:40:25;17.77;;;9.83;;
19998;SDS011;10160;50.926;4.374;2023-04-15T04:42:51;17.53;;;9.80;;
19998;SDS011;10160;50.926;4.374;2023-04-15T04:45:17;16.30;;;9.67;;
19998;SDS011;10160;50.926;4.374;2023-04-15T04:47:43;14.40;;;9.23;;
19998;SDS011;10160;50.926;4.374;2023-04-15T04:50:09;14.10;;;8.90;;
19998;SDS011;10160;50.926;4.374;2023-04-15T04:52:35;14.50;;;9.03;;
19998;SDS011;10160;50.926;4.374;2023-04-15T04:55:01;19.43;;;9.13;;
19998;SDS011;10160;50.926;4.374;2023-04-15T04:57:27;14.90;;;8.83;;
19998;SDS011;10160;50.926;4.374;2023-04-15T04:59:52;18.03;;;9.30;;
19998;SDS011;10160;50.926;4.374;2023-04-15T05:02:18;15.37;;;8.70;;
19998;SDS011;10160;50.926;4.374;2023-04-15T05:04:44;14.20;;;8.77;;
19998;SDS011;10160;50.926;4.374;2023-04-15T05:07:09;16.57;;;9.27;;
19998;SDS011;10160;50.926;4.374;2023-04-15T05:09:35;16.63;;;8.90;;
19998;SDS011;10160;50.926;4.374;2023-04-15T05:12:01;17.07;;;8.80;;
19998;SDS011;10160;50.926;4.374;2023-04-15T05:14:28;20.47;;;9.57;;
19998;SDS011;10160;50.926;4.374;2023-04-15T05:16:55;16.40;;;9.30;;
19998;SDS011;10160;50.926;4.374;2023-04-15T05:19:20;14.77;;;9.43;;
19998;SDS011;10160;50.926;4.374;2023-04-15T05:21:46;14.90;;;8.97;;
19998;SDS011;10160;50.926;4.374;2023-04-15T05:24:12;14.93;;;9.07;;
19998;SDS011;10160;50.926;4.374;2023-04-15T05:26:37;15.57;;;8.00;;
19998;SDS011;10160;50.926;4.374;2023-04-15T05:29:03;18.53;;;9.83;;
19998;SDS011;10160;50.926;4.374;2023-04-15T05:31:29;16.97;;;10.33;;
19998;SDS011;10160;50.926;4.374;2023-04-15T05:33:54;16.43;;;9.73;;
19998;SDS011;10160;50.926;4.374;2023-04-15T05:36:20;14.87;;;8.80;;
19998;SDS011;10160;50.926;4.374;2023-04-15T05:38:46;16.27;;;8.93;;
19998;SDS011;10160;50.926;4.374;2023-04-15T05:41:11;17.77;;;8.90;;
19998;SDS011;10160;50.926;4.374;2023-04-15T05:43:39;13.93;;;8.30;;
19998;SDS011;10160;50.926;4.374;2023-04-15T05:46:05;15.73;;;9.33;;
19998;SDS011;10160;50.926;4.374;2023-04-15T05:48:32;20.07;;;9.03;;
19998;SDS011;10160;50.926;4.374;2023-04-15T05:51:01;19.17;;;9.53;;
19998;SDS011;10160;50.926;4.374;2023-04-15T05:53:27;17.33;;;8.43;;
19998;SDS011;10160;50.926;4.374;2023-04-15T05:55:52;18.80;;;8.63;;
19998;SDS011;10160;50.926;4.374;2023-04-15T05:58:18;16.87;;;8.03;;
19998;SDS011;10160;50.926;4.374;2023-04-15T06:00:43;13.93;;;8.27;;
19998;SDS011;10160;50.926;4.374;2023-04-15T06:03:10;13.97;;;8.10;;
19998;SDS011;10160;50.926;4.374;2023-04-15T06:05:36;17.93;;;8.43;;
19998;SDS011;10160;50.926;4.374;2023-04-15T06:08:02;16.47;;;8.07;;
19998;SDS011;10160;50.926;4.374;2023-04-15T06:10:28;16.33;;;9.10;;
19998;SDS011;10160;50.926;4.374;2023-04-15T06:12:54;13.00;;;7.40;;
19998;SDS011;10160;50.926;4.374;2023-04-15T06:15:20;15.97;;;8.13;;
19998;SDS011;10160;50.926;4.374;2023-04-15T06:17:46;15.57;;;7.73;;
19998;SDS011;10160;50.926;4.374;2023-04-15T06:20:11;15.63;;;8.07;;
19998;SDS011;10160;50.926;4.374;2023-04-15T06:22:37;15.63;;;7.90;;
19998;SDS011;10160;50.926;4.374;2023-04-15T06:25:03;16.27;;;8.43;;
19998;SDS011;10160;50.926;4.374;2023-04-15T06:27:29;15.27;;;8.20;;
19998;SDS011;10160;50.926;4.374;2023-04-15T06:29:55;17.17;;;8.47;;
19998;SDS011;10160;50.926;4.374;2023-04-15T06:32:20;12.97;;;7.67;;
19998;SDS011;10160;50.926;4.374;2023-04-15T06:34:46;18.87;;;7.73;;
19998;SDS011;10160;50.926;4.374;2023-04-15T06:37:12;17.13;;;8.63;;
19998;SDS011;10160;50.926;4.374;2023-04-15T06:39:40;16.33;;;7.70;;
19998;SDS011;10160;50.926;4.374;2023-04-15T06:42:07;14.67;;;8.07;;
19998;SDS011;10160;50.926;4.374;2023-04-15T06:44:33;18.87;;;8.10;;
19998;SDS011;10160;50.926;4.374;2023-04-15T06:46:59;14.90;;;7.93;;
19998;SDS011;10160;50.926;4.374;2023-04-15T06:49:25;13.13;;;7.80;;
19998;SDS011;10160;50.926;4.374;2023-04-15T06:51:50;20.73;;;7.87;;
19998;SDS011;10160;50.926;4.374;2023-04-15T06:54:16;16.43;;;7.50;;
19998;SDS011;10160;50.926;4.374;2023-04-15T06:56:42;15.60;;;6.97;;
19998;SDS011;10160;50.926;4.374;2023-04-15T06:59:08;16.60;;;8.47;;
19998;SDS011;10160;50.926;4.374;2023-04-15T07:01:33;14.23;;;7.63;;
19998;SDS011;10160;50.926;4.374;2023-04-15T07:03:59;16.10;;;8.03;;
19998;SDS011;10160;50.926;4.374;2023-04-15T07:06:25;17.23;;;8.53;;
19998;SDS011;10160;50.926;4.374;2023-04-15T07:08:51;14.33;;;7.73;;
19998;SDS011;10160;50.926;4.374;2023-04-15T07:11:18;17.97;;;8.03;;
19998;SDS011;10160;50.926;4.374;2023-04-15T07:13:45;15.63;;;8.30;;
19998;SDS011;10160;50.926;4.374;2023-04-15T07:16:10;22.00;;;8.97;;
19998;SDS011;10160;50.926;4.374;2023-04-15T07:18:36;15.30;;;7.90;;
19998;SDS011;10160;50.926;4.374;2023-04-15T07:21:02;13.07;;;7.90;;
19998;SDS011;10160;50.926;4.374;2023-04-15T07:23:28;17.73;;;8.40;;
19998;SDS011;10160;50.926;4.374;2023-04-15T07:25:53;15.47;;;8.00;;
19998;SDS011;10160;50.926;4.374;2023-04-15T07:28:19;17.90;;;8.30;;
19998;SDS011;10160;50.926;4.374;2023-04-15T07:30:45;16.93;;;8.60;;
19998;SDS011;10160;50.926;4.374;2023-04-15T07:33:11;16.97;;;8.57;;
19998;SDS011;10160;50.926;4.374;2023-04-15T07:35:36;17.67;;;9.17;;
19998;SDS011;10160;50.926;4.374;2023-04-15T07:38:02;18.67;;;9.97;;
19998;SDS011;10160;50.926;4.374;2023-04-15T07:40:28;20.23;;;9.87;;
19998;SDS011;10160;50.926;4.374;2023-04-15T07:42:54;17.83;;;9.27;;
19998;SDS011;10160;50.926;4.374;2023-04-15T07:45:22;18.47;;;10.30;;
19998;SDS011;10160;50.926;4.374;2023-04-15T07:47:48;21.60;;;10.57;;
19998;SDS011;10160;50.926;4.374;2023-04-15T07:50:15;18.33;;;10.00;;
19998;SDS011;10160;50.926;4.374;2023-04-15T07:52:41;17.17;;;10.97;;
19998;SDS011;10160;50.926;4.374;2023-04-15T07:55:08;21.03;;;11.23;;
19998;SDS011;10160;50.926;4.374;2023-04-15T07:57:34;20.20;;;11.30;;
19998;SDS011;10160;50.926;4.374;2023-04-15T08:00:00;19.37;;;11.17;;
19998;SDS011;10160;50.926;4.374;2023-04-15T08:02:28;21.30;;;12.27;;
19998;SDS011;10160;50.926;4.374;2023-04-15T08:04:53;20.00;;;12.23;;
19998;SDS011;10160;50.926;4.374;2023-04-15T08:07:19;22.00;;;11.67;;
19998;SDS011;10160;50.926;4.374;2023-04-15T08:09:45;28.67;;;12.27;;
19998;SDS011;10160;50.926;4.374;2023-04-15T08:12:11;21.20;;;12.50;;
19998;SDS011;10160;50.926;4.374;2023-04-15T08:14:37;19.80;;;12.03;;
19998;SDS011;10160;50.926;4.374;2023-04-15T08:17:04;21.77;;;11.80;;
19998;SDS011;10160;50.926;4.374;2023-04-15T08:19:30;20.43;;;12.07;;
19998;SDS011;10160;50.926;4.374;2023-04-15T08:21:56;22.83;;;13.03;;
19998;SDS011;10160;50.926;4.374;2023-04-15T08:24:22;18.93;;;12.47;;
19998;SDS011;10160;50.926;4.374;2023-04-15T08:26:50;24.33;;;13.07;;
19998;SDS011;10160;50.926;4.374;2023-04-15T08:29:16;26.10;;;11.77;;
19998;SDS011;10160;50.926;4.374;2023-04-15T08:31:42;22.33;;;12.00;;
19998;SDS011;10160;50.926;4.374;2023-04-15T08:34:07;21.40;;;12.27;;
19998;SDS011;10160;50.926;4.374;2023-04-15T08:36:34;24.07;;;12.47;;
19998;SDS011;10160;50.926;4.374;2023-04-15T08:39:00;20.37;;;12.10;;
19998;SDS011;10160;50.926;4.374;2023-04-15T08:41:26;18.43;;;11.83;;
19998;SDS011;10160;50.926;4.374;2023-04-15T08:43:56;19.43;;;12.07;;
19998;SDS011;10160;50.926;4.374;2023-04-15T08:46:25;23.63;;;13.20;;
19998;SDS011;10160;50.926;4.374;2023-04-15T08:48:51;21.27;;;12.50;;
19998;SDS011;10160;50.926;4.374;2023-04-15T08:51:18;22.27;;;12.20;;
19998;SDS011;10160;50.926;4.374;2023-04-15T08:53:44;18.50;;;11.23;;
19998;SDS011;10160;50.926;4.374;2023-04-15T08:56:11;20.27;;;11.27;;
19998;SDS011;10160;50.926;4.374;2023-04-15T08:58:39;16.67;;;10.43;;
19998;SDS011;10160;50.926;4.374;2023-04-15T09:01:05;18.57;;;11.47;;
19998;SDS011;10160;50.926;4.374;2023-04-15T09:03:31;20.08;;;10.43;;
19998;SDS011;10160;50.926;4.374;2023-04-15T09:05:58;15.82;;;9.30;;
19998;SDS011;10160;50.926;4.374;2023-04-15T09:08:24;18.90;;;9.23;;
19998;SDS011;10160;50.926;4.374;2023-04-15T09:10:50;15.48;;;8.02;;
19998;SDS011;10160;50.926;4.374;2023-04-15T09:13:17;16.23;;;7.65;;
19998;SDS011;10160;50.926;4.374;2023-04-15T09:15:43;15.40;;;8.07;;
19998;SDS011;10160;50.926;4.374;2023-04-15T09:18:10;14.80;;;7.30;;
19998;SDS011;10160;50.926;4.374;2023-04-15T09:20:40;11.80;;;6.32;;
19998;SDS011;10160;50.926;4.374;2023-04-15T09:23:13;15.57;;;7.05;;
19998;SDS011;10160;50.926;4.374;2023-04-15T09:25:40;11.85;;;6.63;;
19998;SDS011;10160;50.926;4.374;2023-04-15T09:28:09;12.40;;;6.47;;
19998;SDS011;10160;50.926;4.374;2023-04-15T09:30:35;14.02;;;6.20;;
19998;SDS011;10160;50.926;4.374;2023-04-15T09:33:01;13.82;;;6.75;;
19998;SDS011;10160;50.926;4.374;2023-04-15T09:35:32;11.80;;;6.43;;
19998;SDS011;10160;50.926;4.374;2023-04-15T09:38:02;13.48;;;5.47;;
19998;SDS011;10160;50.926;4.374;2023-04-15T09:40:32;11.85;;;5.93;;
19998;SDS011;10160;50.926;4.374;2023-04-15T09:43:00;17.42;;;6.53;;
19998;SDS011;10160;50.926;4.374;2023-04-15T09:45:26;12.77;;;6.15;;
19998;SDS011;10160;50.926;4.374;2023-04-15T09:47:53;13.45;;;6.90;;
19998;SDS011;10160;50.926;4.374;2023-04-15T09:50:19;11.20;;;6.07;;
19998;SDS011;10160;50.926;4.374;2023-04-15T09:52:45;10.40;;;5.45;;
19998;SDS011;10160;50.926;4.374;2023-04-15T09:55:12;10.90;;;6.10;;
19998;SDS011;10160;50.926;4.374;2023-04-15T09:57:39;13.32;;;6.68;;
19998;SDS011;10160;50.926;4.374;2023-04-15T10:00:06;12.30;;;6.05;;
19998;SDS011;10160;50.926;4.374;2023-04-15T10:02:35;11.70;;;6.55;;
19998;SDS011;10160;50.926;4.374;2023-04-15T10:05:02;11.30;;;6.65;;
19998;SDS011;10160;50.926;4.374;2023-04-15T10:07:28;13.88;;;7.53;;
19998;SDS011;10160;50.926;4.374;2023-04-15T10:09:54;11.27;;;6.05;;
19998;SDS011;10160;50.926;4.374;2023-04-15T10:12:20;9.35;;;6.00;;
19998;SDS011;10160;50.926;4.374;2023-04-15T10:14:52;8.88;;;5.07;;
19998;SDS011;10160;50.926;4.374;2023-04-15T10:17:22;13.48;;;4.90;;
19998;SDS011;10160;50.926;4.374;2023-04-15T10:19:52;10.38;;;4.35;;
19998;SDS011;10160;50.926;4.374;2023-04-15T10:22:19;10.20;;;4.70;;
19998;SDS011;10160;50.926;4.374;2023-04-15T10:24:45;7.53;;;4.05;;
19998;SDS011;10160;50.926;4.374;2023-04-15T10:27:12;9.23;;;4.05;;
19998;SDS011;10160;50.926;4.374;2023-04-15T10:29:38;9.02;;;3.88;;
19998;SDS011;10160;50.926;4.374;2023-04-15T10:32:04;9.70;;;3.92;;
19998;SDS011;10160;50.926;4.374;2023-04-15T10:34:30;6.07;;;3.33;;
19998;SDS011;10160;50.926;4.374;2023-04-15T10:36:59;6.93;;;3.63;;
19998;SDS011;10160;50.926;4.374;2023-04-15T10:44:40;6.93;;;3.40;;
19998;SDS011;10160;50.926;4.374;2023-04-15T10:47:14;7.22;;;3.10;;
19998;SDS011;10160;50.926;4.374;2023-04-15T10:50:05;5.72;;;3.15;;
19998;SDS011;10160;50.926;4.374;2023-04-15T10:52:30;14.15;;;3.33;;
19998;SDS011;10160;50.926;4.374;2023-04-15T10:57:44;7.45;;;3.15;;
19998;SDS011;10160;50.926;4.374;2023-04-15T11:00:14;8.77;;;3.05;;
19998;SDS011;10160;50.926;4.374;2023-04-15T11:02:41;7.70;;;3.53;;
19998;SDS011;10160;50.926;4.374;2023-04-15T11:05:56;7.05;;;3.33;;
19998;SDS011;10160;50.926;4.374;2023-04-15T11:08:16;8.63;;;3.53;;
19998;SDS011;10160;50.926;4.374;2023-04-15T11:18:13;6.00;;;3.15;;
19998;SDS011;10160;50.926;4.374;2023-04-15T11:20:40;8.88;;;3.67;;
19998;SDS011;10160;50.926;4.374;2023-04-15T11:23:09;5.88;;;2.55;;
19998;SDS011;10160;50.926;4.374;2023-04-15T11:25:36;5.68;;;2.90;;
19998;SDS011;10160;50.926;4.374;2023-04-15T11:28:02;6.40;;;2.75;;
19998;SDS011;10160;50.926;4.374;2023-04-15T11:30:29;6.55;;;2.50;;
19998;SDS011;10160;50.926;4.374;2023-04-15T11:32:58;7.10;;;2.85;;
19998;SDS011;10160;50.926;4.374;2023-04-15T11:35:28;6.35;;;2.65;;
19998;SDS011;10160;50.926;4.374;2023-04-15T11:37:54;7.15;;;3.38;;
19998;SDS011;10160;50.926;4.374;2023-04-15T11:40:24;9.43;;;3.38;;
19998;SDS011;10160;50.926;4.374;2023-04-15T11:43:07;6.18;;;2.70;;
19998;SDS011;10160;50.926;4.374;2023-04-15T11:45:34;5.13;;;2.08;;
19998;SDS011;10160;50.926;4.374;2023-04-15T11:48:10;3.78;;;1.90;;
19998;SDS011;10160;50.926;4.374;2023-04-15T11:50:37;4.72;;;2.13;;
19998;SDS011;10160;50.926;4.374;2023-04-15T11:53:08;5.00;;;1.95;;
19998;SDS011;10160;50.926;4.374;2023-04-15T11:55:46;5.45;;;2.28;;
19998;SDS011;10160;50.926;4.374;2023-04-15T11:58:23;3.97;;;2.20;;
19998;SDS011;10160;50.926;4.374;2023-04-15T12:00:54;4.60;;;2.17;;
19998;SDS011;10160;50.926;4.374;2023-04-15T12:03:40;6.95;;;2.60;;
19998;SDS011;10160;50.926;4.374;2023-04-15T12:08:49;5.10;;;2.47;;
19998;SDS011;10160;50.926;4.374;2023-04-15T12:13:52;6.88;;;2.80;;
19998;SDS011;10160;50.926;4.374;2023-04-15T12:16:18;6.47;;;2.90;;
19998;SDS011;10160;50.926;4.374;2023-04-15T12:18:51;7.22;;;2.53;;
19998;SDS011;10160;50.926;4.374;2023-04-15T12:21:20;5.03;;;2.35;;
19998;SDS011;10160;50.926;4.374;2023-04-15T12:23:50;5.85;;;2.63;;
19998;SDS011;10160;50.926;4.374;2023-04-15T12:26:18;6.43;;;2.20;;
19998;SDS011;10160;50.926;4.374;2023-04-15T12:29:15;5.15;;;2.20;;
19998;SDS011;10160;50.926;4.374;2023-04-15T12:31:47;5.43;;;2.53;;
19998;SDS011;10160;50.926;4.374;2023-04-15T12:34:24;4.82;;;2.38;;
19998;SDS011;10160;50.926;4.374;2023-04-15T12:36:55;6.88;;;2.58;;
19998;SDS011;10160;50.926;4.374;2023-04-15T12:39:25;5.40;;;1.90;;
19998;SDS011;10160;50.926;4.374;2023-04-15T12:41:52;6.22;;;2.05;;
19998;SDS011;10160;50.926;4.374;2023-04-15T12:44:18;4.07;;;1.85;;
19998;SDS011;10160;50.926;4.374;2023-04-15T12:46:45;4.32;;;1.80;;
19998;SDS011;10160;50.926;4.374;2023-04-15T12:49:10;4.28;;;1.90;;
19998;SDS011;10160;50.926;4.374;2023-04-15T12:51:38;5.63;;;2.20;;
19998;SDS011;10160;50.926;4.374;2023-04-15T12:54:04;6.43;;;2.30;;
19998;SDS011;10160;50.926;4.374;2023-04-15T12:56:30;5.68;;;2.05;;
19998;SDS011;10160;50.926;4.374;2023-04-15T12:58:56;6.00;;;2.22;;
19998;SDS011;10160;50.926;4.374;2023-04-15T13:01:21;6.25;;;2.13;;
19998;SDS011;10160;50.926;4.374;2023-04-15T13:03:47;6.60;;;2.67;;
19998;SDS011;10160;50.926;4.374;2023-04-15T13:06:14;7.28;;;2.60;;
19998;SDS011;10160;50.926;4.374;2023-04-15T13:08:40;6.50;;;2.75;;
19998;SDS011;10160;50.926;4.374;2023-04-15T13:11:06;5.68;;;2.85;;
19998;SDS011;10160;50.926;4.374;2023-04-15T13:13:32;6.88;;;3.20;;
19998;SDS011;10160;50.926;4.374;2023-04-15T13:15:57;8.23;;;2.88;;
19998;SDS011;10160;50.926;4.374;2023-04-15T13:18:23;6.15;;;2.80;;
19998;SDS011;10160;50.926;4.374;2023-04-15T13:20:49;6.20;;;2.50;;
19998;SDS011;10160;50.926;4.374;2023-04-15T13:23:15;6.78;;;2.20;;
19998;SDS011;10160;50.926;4.374;2023-04-15T13:25:41;5.65;;;2.15;;
19998;SDS011;10160;50.926;4.374;2023-04-15T13:28:07;7.30;;;2.42;;
19998;SDS011;10160;50.926;4.374;2023-04-15T13:30:36;5.30;;;1.95;;
19998;SDS011;10160;50.926;4.374;2023-04-15T13:33:02;5.78;;;2.28;;
19998;SDS011;10160;50.926;4.374;2023-04-15T13:35:28;8.05;;;1.85;;
19998;SDS011;10160;50.926;4.374;2023-04-15T13:37:53;6.28;;;2.10;;
19998;SDS011;10160;50.926;4.374;2023-04-15T13:40:20;8.90;;;2.40;;
19998;SDS011;10160;50.926;4.374;2023-04-15T13:42:46;4.78;;;1.92;;
19998;SDS011;10160;50.926;4.374;2023-04-15T13:45:12;5.97;;;2.00;;
19998;SDS011;10160;50.926;4.374;2023-04-15T13:47:38;6.05;;;2.03;;
19998;SDS011;10160;50.926;4.374;2023-04-15T13:50:05;7.43;;;2.22;;
19998;SDS011;10160;50.926;4.374;2023-04-15T13:52:31;6.38;;;1.80;;
19998;SDS011;10160;50.926;4.374;2023-04-15T13:54:56;8.40;;;1.85;;
19998;SDS011;10160;50.926;4.374;2023-04-15T13:57:22;10.10;;;2.63;;
19998;SDS011;10160;50.926;4.374;2023-04-15T13:59:48;10.57;;;2.38;;
19998;SDS011;10160;50.926;4.374;2023-04-15T14:02:14;7.00;;;2.55;;
19998;SDS011;10160;50.926;4.374;2023-04-15T14:04:39;5.85;;;2.13;;
19998;SDS011;10160;50.926;4.374;2023-04-15T14:07:05;5.35;;;2.38;;
19998;SDS011;10160;50.926;4.374;2023-04-15T14:09:31;6.47;;;2.00;;
19998;SDS011;10160;50.926;4.374;2023-04-15T14:11:56;5.40;;;1.80;;
19998;SDS011;10160;50.926;4.374;2023-04-15T14:14:23;6.20;;;1.65;;
19998;SDS011;10160;50.926;4.374;2023-04-15T14:16:49;3.95;;;1.50;;
19998;SDS011;10160;50.926;4.374;2023-04-15T14:19:15;5.78;;;1.30;;
19998;SDS011;10160;50.926;4.374;2023-04-15T14:21:41;3.03;;;1.20;;
19998;SDS011;10160;50.926;4.374;2023-04-15T14:24:06;3.53;;;1.20;;
19998;SDS011;10160;50.926;4.374;2023-04-15T14:26:32;2.95;;;1.00;;
19998;SDS011;10160;50.926;4.374;2023-04-15T14:28:58;5.38;;;0.93;;
19998;SDS011;10160;50.926;4.374;2023-04-15T14:31:24;3.00;;;0.90;;
19998;SDS011;10160;50.926;4.374;2023-04-15T14:33:50;4.20;;;1.20;;
19998;SDS011;10160;50.926;4.374;2023-04-15T14:36:15;4.85;;;1.35;;
19998;SDS011;10160;50.926;4.374;2023-04-15T14:38:41;5.53;;;1.50;;
19998;SDS011;10160;50.926;4.374;2023-04-15T14:41:07;5.07;;;1.77;;
19998;SDS011;10160;50.926;4.374;2023-04-15T14:43:34;10.90;;;1.98;;
19998;SDS011;10160;50.926;4.374;2023-04-15T14:46:00;5.55;;;1.70;;
19998;SDS011;10160;50.926;4.374;2023-04-15T14:48:25;4.50;;;1.52;;
19998;SDS011;10160;50.926;4.374;2023-04-15T14:50:51;3.97;;;1.73;;
19998;SDS011;10160;50.926;4.374;2023-04-15T14:53:17;8.32;;;1.88;;
19998;SDS011;10160;50.926;4.374;2023-04-15T14:55:43;5.10;;;2.00;;
19998;SDS011;10160;50.926;4.374;2023-04-15T14:58:09;5.75;;;1.90;;